Time;durP1;ratioP1;P1;durP2;ratioP2;P2;SDS_P1;SDS_P2;PMS_P1;PMS_P2;Temp;Humidity;BMP_temperature;BMP_pressure;BME280_temperature;BME280_humidity;BME280_pressure;Samples;Min_cycle;Max_cycle;Signal;HPM_P1;HPM_P2
2021/01/17 00:00:19;;;;;;;4.60;3.42;;;;;;;;;;4989263;28;106608;-53
2021/01/17 00:02:46;;;;;;;4.68;3.22;;;;;;;;;;4982663;28;105276;-54
2021/01/17 00:05:12;;;;;;;4.20;3.00;;;;;;;;;;4984564;28;105535;-54
2021/01/17 00:07:37;;;;;;;4.47;3.30;;;;;;;;;;4984983;28;105488;-52
2021/01/17 00:10:07;;;;;;;4.00;3.10;;;;;;;;;;4985978;28;105553;-52
2021/01/17 00:12:32;;;;;;;4.72;3.22;;;;;;;;;;4982322;28;107404;-53
2021/01/17 00:14:58;;;;;;;4.70;3.45;;;;;;;;;;4984528;28;105560;-51
2021/01/17 00:17:23;;;;;;;4.50;3.28;;;;;;;;;;4986125;28;107514;-51
2021/01/17 00:19:49;;;;;;;5.45;3.25;;;;;;;;;;4992443;28;105003;-54
2021/01/17 00:22:14;;;;;;;4.40;3.17;;;;;;;;;;4992652;28;104989;-53
2021/01/17 00:24:40;;;;;;;4.82;3.40;;;;;;;;;;4991580;28;105457;-53
2021/01/17 00:27:05;;;;;;;4.75;3.08;;;;;;;;;;4989764;28;105148;-54
2021/01/17 00:29:31;;;;;;;3.97;2.95;;;;;;;;;;5002781;28;109993;-54
2021/01/17 00:31:56;;;;;;;6.10;3.80;;;;;;;;;;4988095;28;105124;-53
2021/01/17 00:34:22;;;;;;;4.78;3.70;;;;;;;;;;4988802;28;105560;-54
2021/01/17 00:36:47;;;;;;;5.75;3.70;;;;;;;;;;4987404;28;106010;-52
2021/01/17 00:39:13;;;;;;;4.85;3.60;;;;;;;;;;4988543;28;104975;-52
2021/01/17 00:41:38;;;;;;;4.90;3.67;;;;;;;;;;4988007;28;105183;-54
2021/01/17 00:44:04;;;;;;;4.50;3.50;;;;;;;;;;5000310;28;107057;-51
2021/01/17 00:46:37;;;;;;;5.63;3.78;;;;;;;;;;4990076;28;106062;-51
2021/01/17 00:49:03;;;;;;;5.00;3.53;;;;;;;;;;4987314;28;105666;-52
2021/01/17 00:51:42;;;;;;;6.35;4.25;;;;;;;;;;4970738;28;107609;-54
2021/01/17 00:54:08;;;;;;;5.60;3.67;;;;;;;;;;4977732;28;105234;-53
2021/01/17 00:56:35;;;;;;;5.05;3.58;;;;;;;;;;4989958;28;107196;-51
2021/01/17 00:59:00;;;;;;;4.95;3.63;;;;;;;;;;4979907;28;108572;-50
2021/01/17 01:01:27;;;;;;;5.53;3.67;;;;;;;;;;4997133;28;105154;-50
2021/01/17 01:03:53;;;;;;;5.22;3.83;;;;;;;;;;4996769;28;107391;-53
2021/01/17 01:06:19;;;;;;;5.45;3.85;;;;;;;;;;4994400;28;105551;-50
2021/01/17 01:08:45;;;;;;;5.63;3.95;;;;;;;;;;4987936;28;105271;-50
2021/01/17 01:11:17;;;;;;;6.25;3.88;;;;;;;;;;4991620;28;105531;-50
2021/01/17 01:13:42;;;;;;;4.97;3.80;;;;;;;;;;4990994;28;104979;-51
2021/01/17 01:16:11;;;;;;;6.22;4.00;;;;;;;;;;4991570;28;105023;-53
2021/01/17 01:18:37;;;;;;;5.50;3.85;;;;;;;;;;4992924;28;104996;-54
2021/01/17 01:21:02;;;;;;;5.20;3.97;;;;;;;;;;4991691;28;105253;-55
2021/01/17 01:23:28;;;;;;;6.13;3.92;;;;;;;;;;5000351;28;106262;-52
2021/01/17 01:25:56;;;;;;;5.57;3.90;;;;;;;;;;4992730;28;105976;-50
2021/01/17 01:28:22;;;;;;;6.13;4.07;;;;;;;;;;4994760;28;105045;-53
2021/01/17 01:30:47;;;;;;;5.55;3.78;;;;;;;;;;4989528;28;105398;-51
2021/01/17 01:33:13;;;;;;;6.15;3.97;;;;;;;;;;5000743;28;105041;-53
2021/01/17 01:35:38;;;;;;;5.57;4.03;;;;;;;;;;4990538;28;109195;-51
2021/01/17 01:38:04;;;;;;;5.85;3.85;;;;;;;;;;4997140;28;106126;-52
2021/01/17 01:40:29;;;;;;;6.40;3.90;;;;;;;;;;4990487;28;104976;-51
2021/01/17 01:42:54;;;;;;;5.65;3.95;;;;;;;;;;4989591;28;110394;-53
2021/01/17 01:45:20;;;;;;;6.50;4.22;;;;;;;;;;4991007;28;105437;-54
2021/01/17 01:47:45;;;;;;;5.60;3.97;;;;;;;;;;4993149;28;105769;-51
2021/01/17 01:50:11;;;;;;;5.90;4.20;;;;;;;;;;4995556;28;105752;-54
2021/01/17 01:52:37;;;;;;;6.65;4.22;;;;;;;;;;4966510;28;105204;-54
2021/01/17 01:55:02;;;;;;;5.97;4.22;;;;;;;;;;4995342;28;105686;-50
2021/01/17 01:57:29;;;;;;;5.97;4.43;;;;;;;;;;4999138;28;108399;-52
2021/01/17 01:59:54;;;;;;;6.13;4.18;;;;;;;;;;4996596;28;105075;-53
2021/01/17 02:02:20;;;;;;;5.95;4.20;;;;;;;;;;4993029;28;105732;-51
2021/01/17 02:04:45;;;;;;;5.22;3.95;;;;;;;;;;4992792;28;105619;-54
2021/01/17 02:07:13;;;;;;;5.45;3.90;;;;;;;;;;4990072;28;105126;-54
2021/01/17 02:09:39;;;;;;;6.18;4.00;;;;;;;;;;4997335;28;105309;-51
2021/01/17 02:12:26;;;;;;;5.15;3.88;;;;;;;;;;4980467;28;105004;-51
2021/01/17 02:15:33;;;;;;;6.35;4.30;;;;;;;;;;4989929;28;105638;-52
2021/01/17 02:18:03;;;;;;;6.22;4.38;;;;;;;;;;4953204;28;105899;-55
2021/01/17 02:20:28;;;;;;;5.97;3.95;;;;;;;;;;4954590;28;105130;-54
2021/01/17 02:23:04;;;;;;;6.10;4.20;;;;;;;;;;4949869;28;105233;-52
2021/01/17 02:25:37;;;;;;;6.43;4.20;;;;;;;;;;4956725;28;105650;-51
2021/01/17 02:28:05;;;;;;;5.75;4.03;;;;;;;;;;4951780;28;105033;-54
2021/01/17 02:30:31;;;;;;;5.78;3.97;;;;;;;;;;4949336;28;105966;-52
2021/01/17 02:32:59;;;;;;;6.47;4.07;;;;;;;;;;4936078;28;105576;-53
2021/01/17 02:35:25;;;;;;;6.50;4.47;;;;;;;;;;4940490;28;106283;-51
2021/01/17 02:38:04;;;;;;;6.35;4.47;;;;;;;;;;4951497;28;105889;-51
2021/01/17 02:40:47;;;;;;;5.55;3.97;;;;;;;;;;4955332;28;105225;-54
2021/01/17 02:43:13;;;;;;;7.25;4.68;;;;;;;;;;4949905;28;105563;-53
2021/01/17 02:45:38;;;;;;;6.93;4.70;;;;;;;;;;4955249;28;106610;-50
2021/01/17 02:48:04;;;;;;;6.38;4.13;;;;;;;;;;4963878;28;105370;-53
2021/01/17 02:50:29;;;;;;;6.10;4.20;;;;;;;;;;4992081;28;107322;-54
2021/01/17 02:53:15;;;;;;;5.57;3.95;;;;;;;;;;4994435;28;105617;-51
2021/01/17 02:55:40;;;;;;;6.07;4.10;;;;;;;;;;5003533;28;105241;-54
2021/01/17 02:58:07;;;;;;;6.43;4.43;;;;;;;;;;4977672;28;105092;-54
2021/01/17 03:00:33;;;;;;;5.45;3.88;;;;;;;;;;4990745;28;105268;-51
2021/01/17 03:02:58;;;;;;;6.63;4.53;;;;;;;;;;4977601;28;105564;-51
2021/01/17 03:05:24;;;;;;;5.55;4.07;;;;;;;;;;4978391;28;107485;-51
2021/01/17 03:07:51;;;;;;;5.90;4.00;;;;;;;;;;4994369;28;105105;-54
2021/01/17 03:10:17;;;;;;;6.30;4.25;;;;;;;;;;4992739;28;105271;-55
2021/01/17 03:12:42;;;;;;;5.13;3.92;;;;;;;;;;4988773;28;105099;-55
2021/01/17 03:15:08;;;;;;;5.88;4.20;;;;;;;;;;4990468;28;105051;-54
2021/01/17 03:17:33;;;;;;;5.95;4.05;;;;;;;;;;4992250;28;105512;-54
2021/01/17 03:19:59;;;;;;;6.47;4.38;;;;;;;;;;4996732;28;105273;-52
2021/01/17 03:22:24;;;;;;;6.13;4.43;;;;;;;;;;4991554;28;105446;-54
2021/01/17 03:24:50;;;;;;;6.38;4.53;;;;;;;;;;5000049;28;105490;-52
2021/01/17 03:27:15;;;;;;;6.00;4.28;;;;;;;;;;4981343;28;105751;-50
2021/01/17 03:29:41;;;;;;;5.97;4.10;;;;;;;;;;4992192;28;105598;-52
2021/01/17 03:32:06;;;;;;;6.68;4.32;;;;;;;;;;4989415;28;111334;-54
2021/01/17 03:34:32;;;;;;;6.43;4.30;;;;;;;;;;4989446;28;104866;-54
2021/01/17 03:36:57;;;;;;;6.60;4.32;;;;;;;;;;4991306;28;105626;-53
2021/01/17 03:39:22;;;;;;;5.82;4.03;;;;;;;;;;4993357;28;105026;-53
2021/01/17 03:41:48;;;;;;;6.07;4.38;;;;;;;;;;4997685;28;111590;-52
2021/01/17 03:44:13;;;;;;;7.18;4.70;;;;;;;;;;4997148;28;106723;-52
2021/01/17 03:46:39;;;;;;;6.45;4.57;;;;;;;;;;4986764;28;106084;-51
2021/01/17 03:49:04;;;;;;;6.72;4.35;;;;;;;;;;4990505;28;105061;-52
2021/01/17 03:51:30;;;;;;;6.88;4.53;;;;;;;;;;4991761;28;105483;-51
2021/01/17 03:53:55;;;;;;;6.03;4.32;;;;;;;;;;4991455;28;105395;-54
2021/01/17 03:56:21;;;;;;;7.75;4.50;;;;;;;;;;4990138;28;105027;-51
2021/01/17 03:58:46;;;;;;;6.55;4.25;;;;;;;;;;4991284;28;105024;-51
2021/01/17 04:01:11;;;;;;;6.35;4.35;;;;;;;;;;4989217;28;105766;-51
2021/01/17 04:03:37;;;;;;;6.78;4.85;;;;;;;;;;4989622;28;104994;-52
2021/01/17 04:06:03;;;;;;;7.70;4.63;;;;;;;;;;4989686;28;105385;-51
2021/01/17 04:08:28;;;;;;;6.28;4.35;;;;;;;;;;4990025;28;105076;-52
2021/01/17 04:10:54;;;;;;;6.40;4.18;;;;;;;;;;4987997;28;105065;-53
2021/01/17 04:13:19;;;;;;;6.38;4.22;;;;;;;;;;4992358;28;105020;-52
2021/01/17 04:15:45;;;;;;;6.57;4.30;;;;;;;;;;4997105;28;105217;-54
2021/01/17 04:18:10;;;;;;;6.53;4.60;;;;;;;;;;4991806;28;104988;-52
2021/01/17 04:20:36;;;;;;;6.32;4.38;;;;;;;;;;4994634;28;105953;-53
2021/01/17 04:23:04;;;;;;;6.15;4.25;;;;;;;;;;4996777;28;105511;-53
2021/01/17 04:25:29;;;;;;;6.60;4.43;;;;;;;;;;4989525;28;105028;-51
2021/01/17 04:27:55;;;;;;;6.68;4.53;;;;;;;;;;4999446;28;117860;-53
2021/01/17 04:30:22;;;;;;;6.97;4.60;;;;;;;;;;4978260;28;105804;-51
2021/01/17 04:32:48;;;;;;;7.28;4.85;;;;;;;;;;4990483;28;105078;-51
2021/01/17 04:35:13;;;;;;;5.57;4.10;;;;;;;;;;4988796;28;105610;-53
2021/01/17 04:37:39;;;;;;;6.63;4.60;;;;;;;;;;4988743;28;105473;-51
2021/01/17 04:40:06;;;;;;;6.03;4.30;;;;;;;;;;4989505;28;105040;-53
2021/01/17 04:42:33;;;;;;;7.30;4.75;;;;;;;;;;4993633;28;105699;-53
2021/01/17 04:45:03;;;;;;;6.43;4.15;;;;;;;;;;4979743;28;105010;-54
2021/01/17 04:47:28;;;;;;;6.07;4.35;;;;;;;;;;4994283;28;105014;-51
2021/01/17 04:49:54;;;;;;;6.22;4.70;;;;;;;;;;4983481;28;105088;-51
2021/01/17 04:52:24;;;;;;;6.50;4.50;;;;;;;;;;4981040;28;105419;-54
2021/01/17 04:54:51;;;;;;;7.53;4.70;;;;;;;;;;4999656;28;108181;-54
2021/01/17 04:57:38;;;;;;;6.32;4.40;;;;;;;;;;4979228;28;105718;-52
2021/01/17 05:00:10;;;;;;;6.03;4.45;;;;;;;;;;5008218;28;105196;-53
2021/01/17 05:02:57;;;;;;;7.30;5.05;;;;;;;;;;4993214;28;105016;-55
2021/01/17 05:05:23;;;;;;;7.68;5.30;;;;;;;;;;5000726;28;105579;-51
2021/01/17 05:08:04;;;;;;;7.15;4.68;;;;;;;;;;4991703;28;105543;-54
2021/01/17 05:10:38;;;;;;;8.00;5.22;;;;;;;;;;5000480;28;104982;-54
2021/01/17 05:13:12;;;;;;;7.30;4.85;;;;;;;;;;4993587;28;105418;-51
2021/01/17 05:15:39;;;;;;;6.80;4.68;;;;;;;;;;4992205;28;105778;-55
2021/01/17 05:18:04;;;;;;;7.32;4.93;;;;;;;;;;4993142;28;106034;-51
2021/01/17 05:20:30;;;;;;;6.28;4.47;;;;;;;;;;4992722;28;105089;-54
2021/01/17 05:22:56;;;;;;;7.35;4.82;;;;;;;;;;4983215;28;106930;-54
2021/01/17 05:25:21;;;;;;;7.30;4.60;;;;;;;;;;4991452;28;105299;-55
2021/01/17 05:27:48;;;;;;;6.53;4.47;;;;;;;;;;4995928;28;105190;-55
2021/01/17 05:30:14;;;;;;;7.38;4.82;;;;;;;;;;4990831;28;105708;-55
2021/01/17 05:32:40;;;;;;;5.88;4.35;;;;;;;;;;4993977;28;105040;-53
2021/01/17 05:35:05;;;;;;;6.45;4.68;;;;;;;;;;5001615;28;106829;-51
2021/01/17 05:37:31;;;;;;;7.32;4.90;;;;;;;;;;4991855;28;107180;-53
2021/01/17 05:40:04;;;;;;;6.78;4.63;;;;;;;;;;4991578;28;105475;-53
2021/01/17 05:42:33;;;;;;;7.25;5.32;;;;;;;;;;4996720;28;105772;-51
2021/01/17 05:45:12;;;;;;;8.10;4.85;;;;;;;;;;4999614;28;105682;-52
2021/01/17 05:47:38;;;;;;;7.90;5.22;;;;;;;;;;4996667;28;105238;-54
2021/01/17 05:50:08;;;;;;;7.10;4.75;;;;;;;;;;4989472;28;105705;-52
2021/01/17 05:52:34;;;;;;;6.75;4.90;;;;;;;;;;4993644;28;105636;-53
2021/01/17 05:55:00;;;;;;;7.20;4.95;;;;;;;;;;4972926;28;105603;-54
2021/01/17 05:57:25;;;;;;;7.18;5.10;;;;;;;;;;4991581;28;105393;-54
2021/01/17 05:59:53;;;;;;;6.65;4.88;;;;;;;;;;4981418;28;105759;-52
2021/01/17 06:02:23;;;;;;;6.63;4.53;;;;;;;;;;4978346;28;105618;-51
2021/01/17 06:04:56;;;;;;;7.00;4.90;;;;;;;;;;4995263;28;105692;-52
2021/01/17 06:07:30;;;;;;;6.30;4.47;;;;;;;;;;4983081;28;105152;-52
2021/01/17 06:09:56;;;;;;;6.75;4.80;;;;;;;;;;4980134;28;105201;-54
2021/01/17 06:12:31;;;;;;;7.82;5.05;;;;;;;;;;4993798;28;105055;-53
2021/01/17 06:15:07;;;;;;;7.90;4.80;;;;;;;;;;4993021;28;105640;-55
2021/01/17 06:17:34;;;;;;;6.70;4.70;;;;;;;;;;4992900;28;105233;-52
2021/01/17 06:20:09;;;;;;;6.65;4.80;;;;;;;;;;4991375;28;105067;-54
2021/01/17 06:22:36;;;;;;;6.70;4.97;;;;;;;;;;4996773;28;105652;-54
2021/01/17 06:25:03;;;;;;;7.72;5.13;;;;;;;;;;4994338;28;105686;-52
2021/01/17 06:27:28;;;;;;;7.28;4.63;;;;;;;;;;4992405;28;105063;-55
2021/01/17 06:29:54;;;;;;;7.78;5.15;;;;;;;;;;4991064;28;105595;-55
2021/01/17 06:32:20;;;;;;;7.30;4.80;;;;;;;;;;5003170;28;105254;-54
2021/01/17 06:34:53;;;;;;;7.32;5.20;;;;;;;;;;4991604;28;105626;-53
2021/01/17 06:37:19;;;;;;;6.78;4.70;;;;;;;;;;4990996;28;105633;-54
2021/01/17 06:39:49;;;;;;;8.00;5.43;;;;;;;;;;4994224;28;105065;-55
2021/01/17 06:42:16;;;;;;;6.88;5.03;;;;;;;;;;4996227;28;105698;-54
2021/01/17 06:44:42;;;;;;;6.97;4.63;;;;;;;;;;4990658;28;105557;-54
2021/01/17 06:47:24;;;;;;;7.90;5.10;;;;;;;;;;4990831;28;105158;-53
2021/01/17 06:49:53;;;;;;;7.95;5.10;;;;;;;;;;4989167;28;105711;-53
2021/01/17 06:52:19;;;;;;;8.10;5.57;;;;;;;;;;4990843;28;105689;-54
2021/01/17 06:54:49;;;;;;;7.60;5.03;;;;;;;;;;4994031;28;105721;-53
2021/01/17 06:57:14;;;;;;;8.30;5.43;;;;;;;;;;4975551;28;106056;-53
2021/01/17 06:59:58;;;;;;;8.13;5.25;;;;;;;;;;4996480;28;105049;-52
2021/01/17 07:02:36;;;;;;;7.53;5.25;;;;;;;;;;4991630;28;105140;-52
2021/01/17 07:05:07;;;;;;;7.13;5.00;;;;;;;;;;4989094;28;105667;-52
2021/01/17 07:08:00;;;;;;;7.68;5.20;;;;;;;;;;5007961;28;104969;-54
2021/01/17 07:10:26;;;;;;;7.43;5.07;;;;;;;;;;4993554;28;105464;-56
2021/01/17 07:12:58;;;;;;;7.28;5.10;;;;;;;;;;4976345;28;115623;-53
2021/01/17 07:15:30;;;;;;;8.10;6.07;;;;;;;;;;4991339;28;105096;-55
2021/01/17 07:18:02;;;;;;;8.70;5.78;;;;;;;;;;4992545;28;105068;-55
2021/01/17 07:20:29;;;;;;;8.05;5.38;;;;;;;;;;4991138;28;105359;-55
2021/01/17 07:22:58;;;;;;;8.52;5.90;;;;;;;;;;4970969;28;105659;-55
2021/01/17 07:25:24;;;;;;;8.13;5.70;;;;;;;;;;4979970;28;105904;-55
2021/01/17 07:28:15;;;;;;;8.27;5.85;;;;;;;;;;4991507;28;105294;-55
2021/01/17 07:30:48;;;;;;;8.10;5.93;;;;;;;;;;4996000;28;105348;-56
2021/01/17 07:33:15;;;;;;;7.85;5.50;;;;;;;;;;4994984;28;105230;-55
2021/01/17 07:35:44;;;;;;;9.10;6.80;;;;;;;;;;4996095;28;105493;-53
2021/01/17 07:38:15;;;;;;;13.80;9.00;;;;;;;;;;4993055;28;105612;-56
2021/01/17 07:40:50;;;;;;;48.65;28.88;;;;;;;;;;4994990;28;105731;-55
2021/01/17 07:43:17;;;;;;;40.67;24.92;;;;;;;;;;4995378;28;105646;-55
2021/01/17 07:45:42;;;;;;;35.42;22.17;;;;;;;;;;4996001;28;105123;-57
2021/01/17 07:48:09;;;;;;;26.77;17.00;;;;;;;;;;4996722;28;105339;-55
2021/01/17 07:50:40;;;;;;;46.92;31.65;;;;;;;;;;4996524;28;105447;-53
2021/01/17 07:53:09;;;;;;;13.63;9.45;;;;;;;;;;4996381;28;105010;-55
2021/01/17 07:55:35;;;;;;;17.08;12.25;;;;;;;;;;4978757;28;105106;-53
2021/01/17 07:58:00;;;;;;;13.73;10.30;;;;;;;;;;4996615;28;105730;-56
2021/01/17 08:00:26;;;;;;;10.48;7.90;;;;;;;;;;4976883;28;108285;-55
2021/01/17 08:02:51;;;;;;;9.18;5.65;;;;;;;;;;4996560;28;105652;-51
2021/01/17 08:05:16;;;;;;;10.90;8.25;;;;;;;;;;4994341;28;115066;-52
2021/01/17 08:07:42;;;;;;;11.50;8.65;;;;;;;;;;4993280;28;105882;-55
2021/01/17 08:10:07;;;;;;;11.90;9.43;;;;;;;;;;4996134;28;105782;-53
2021/01/17 08:12:34;;;;;;;11.30;9.13;;;;;;;;;;4995765;28;106107;-52
2021/01/17 08:15:13;;;;;;;11.35;8.35;;;;;;;;;;4995515;28;105106;-55
2021/01/17 08:17:38;;;;;;;12.75;9.15;;;;;;;;;;4995587;28;105059;-54
2021/01/17 08:20:05;;;;;;;8.93;6.97;;;;;;;;;;4996399;28;106904;-52
2021/01/17 08:22:30;;;;;;;11.63;7.72;;;;;;;;;;4999297;28;105321;-51
2021/01/17 08:24:56;;;;;;;10.18;7.45;;;;;;;;;;4998100;28;105588;-51
2021/01/17 08:27:27;;;;;;;11.32;7.20;;;;;;;;;;4995264;28;105099;-53
2021/01/17 08:30:08;;;;;;;9.40;7.03;;;;;;;;;;5000507;28;105526;-54
2021/01/17 08:32:55;;;;;;;11.63;7.53;;;;;;;;;;4998599;28;105615;-55
2021/01/17 08:35:20;;;;;;;10.32;6.93;;;;;;;;;;5001517;28;105081;-56
2021/01/17 08:37:52;;;;;;;9.60;7.15;;;;;;;;;;4999687;28;104970;-55
2021/01/17 08:40:29;;;;;;;9.25;6.80;;;;;;;;;;5000605;28;105049;-54
2021/01/17 08:42:54;;;;;;;11.05;7.20;;;;;;;;;;4997770;28;105746;-54
2021/01/17 08:45:20;;;;;;;10.23;7.13;;;;;;;;;;5000853;28;104999;-54
2021/01/17 08:47:55;;;;;;;9.27;6.78;;;;;;;;;;4999056;28;105833;-55
2021/01/17 08:50:38;;;;;;;10.02;6.38;;;;;;;;;;4996529;28;105167;-54
2021/01/17 08:53:30;;;;;;;10.45;6.57;;;;;;;;;;4991658;28;105427;-53
2021/01/17 08:56:10;;;;;;;9.52;7.10;;;;;;;;;;4995455;28;105030;-54
2021/01/17 08:58:36;;;;;;;9.45;6.65;;;;;;;;;;4996050;28;105562;-54
2021/01/17 09:01:03;;;;;;;11.27;7.32;;;;;;;;;;4998437;28;105443;-53
2021/01/17 09:03:32;;;;;;;9.73;6.97;;;;;;;;;;4997147;28;105048;-51
2021/01/17 09:05:58;;;;;;;9.73;7.25;;;;;;;;;;5002176;28;106062;-54
2021/01/17 09:08:25;;;;;;;9.77;6.95;;;;;;;;;;5001367;28;105865;-56
2021/01/17 09:10:51;;;;;;;10.35;7.40;;;;;;;;;;4994486;28;106407;-53
2021/01/17 09:13:20;;;;;;;10.20;7.38;;;;;;;;;;4996345;28;105070;-55
2021/01/17 09:15:51;;;;;;;11.63;7.10;;;;;;;;;;4997823;28;105363;-52
2021/01/17 09:18:25;;;;;;;10.90;7.22;;;;;;;;;;4997354;28;105634;-54
2021/01/17 09:20:54;;;;;;;10.25;6.65;;;;;;;;;;4996132;28;105032;-55
2021/01/17 09:23:20;;;;;;;9.95;6.78;;;;;;;;;;4981462;28;105219;-55
2021/01/17 09:25:57;;;;;;;9.43;6.78;;;;;;;;;;4997976;28;105774;-54
2021/01/17 09:28:23;;;;;;;9.93;6.75;;;;;;;;;;4980270;28;105725;-53
2021/01/17 09:30:51;;;;;;;9.77;6.80;;;;;;;;;;4999950;28;105012;-54
2021/01/17 09:33:17;;;;;;;10.60;7.20;;;;;;;;;;4995824;28;105100;-54
2021/01/17 09:35:43;;;;;;;9.80;6.95;;;;;;;;;;4998105;28;105473;-55
2021/01/17 09:38:12;;;;;;;9.07;6.25;;;;;;;;;;4983813;28;105093;-53
2021/01/17 09:40:41;;;;;;;9.85;6.72;;;;;;;;;;4997942;28;105850;-54
2021/01/17 09:43:07;;;;;;;9.98;6.93;;;;;;;;;;4993244;28;105352;-55
2021/01/17 09:45:32;;;;;;;9.75;6.18;;;;;;;;;;4980217;28;105106;-55
2021/01/17 09:47:58;;;;;;;11.52;7.68;;;;;;;;;;4997564;28;105639;-54
2021/01/17 09:50:24;;;;;;;8.35;5.75;;;;;;;;;;4997709;28;105275;-54
2021/01/17 09:52:49;;;;;;;8.70;6.22;;;;;;;;;;5001500;28;105745;-53
2021/01/17 09:55:15;;;;;;;8.48;6.13;;;;;;;;;;4993813;28;105003;-55
2021/01/17 09:57:40;;;;;;;8.80;6.47;;;;;;;;;;4997516;28;105261;-55
2021/01/17 10:00:20;;;;;;;9.27;6.10;;;;;;;;;;4996589;28;106013;-54
2021/01/17 10:02:45;;;;;;;8.75;6.13;;;;;;;;;;4998527;28;105041;-54
2021/01/17 10:05:11;;;;;;;8.98;5.88;;;;;;;;;;4964736;28;108538;-50
2021/01/17 10:07:37;;;;;;;9.23;6.80;;;;;;;;;;4996889;28;105249;-53
2021/01/17 10:10:09;;;;;;;9.05;5.63;;;;;;;;;;4997391;28;105468;-49
2021/01/17 10:12:34;;;;;;;9.52;6.43;;;;;;;;;;4998465;28;105091;-51
2021/01/17 10:15:00;;;;;;;9.27;6.03;;;;;;;;;;4996293;28;105433;-52
2021/01/17 10:17:25;;;;;;;9.10;6.07;;;;;;;;;;4995625;28;105386;-53
2021/01/17 10:19:51;;;;;;;9.40;6.20;;;;;;;;;;4998603;28;105503;-51
2021/01/17 10:22:17;;;;;;;9.32;6.18;;;;;;;;;;4991027;28;105490;-54
2021/01/17 10:24:42;;;;;;;8.65;5.45;;;;;;;;;;4996642;28;105516;-50
2021/01/17 10:27:09;;;;;;;8.77;5.53;;;;;;;;;;4976030;28;105126;-50
2021/01/17 10:29:39;;;;;;;8.40;5.55;;;;;;;;;;4997434;28;104983;-52
2021/01/17 10:32:11;;;;;;;8.45;5.95;;;;;;;;;;4997269;28;105068;-51
2021/01/17 10:34:42;;;;;;;7.95;5.30;;;;;;;;;;5001019;28;105253;-50
2021/01/17 10:37:11;;;;;;;8.38;5.80;;;;;;;;;;4995767;28;104968;-51
2021/01/17 10:39:39;;;;;;;8.75;5.88;;;;;;;;;;4997584;28;106033;-50
2021/01/17 10:42:09;;;;;;;8.35;6.00;;;;;;;;;;4997038;28;105769;-50
2021/01/17 10:44:39;;;;;;;8.27;5.30;;;;;;;;;;4996401;28;105868;-54
2021/01/17 10:47:07;;;;;;;9.27;6.00;;;;;;;;;;4994121;28;105689;-53
2021/01/17 10:49:35;;;;;;;9.10;5.88;;;;;;;;;;4978671;28;105065;-54
2021/01/17 10:52:05;;;;;;;8.40;5.53;;;;;;;;;;4965959;28;105701;-50
2021/01/17 10:54:31;;;;;;;8.25;5.55;;;;;;;;;;4995758;28;105063;-52
2021/01/17 10:57:01;;;;;;;8.55;5.50;;;;;;;;;;5000776;28;105059;-53
2021/01/17 10:59:27;;;;;;;7.30;5.35;;;;;;;;;;5011653;28;105769;-52
2021/01/17 11:01:52;;;;;;;8.20;5.53;;;;;;;;;;4995187;28;105340;-53
2021/01/17 11:04:17;;;;;;;9.10;5.63;;;;;;;;;;4992922;28;113277;-53
2021/01/17 11:06:44;;;;;;;8.32;6.03;;;;;;;;;;4997514;28;106197;-51
2021/01/17 11:09:16;;;;;;;7.60;5.45;;;;;;;;;;4996856;28;105783;-52
2021/01/17 11:11:43;;;;;;;8.13;5.45;;;;;;;;;;4996981;28;105809;-52
2021/01/17 11:14:09;;;;;;;7.60;5.32;;;;;;;;;;4994292;28;105428;-52
2021/01/17 11:16:36;;;;;;;8.07;5.28;;;;;;;;;;4994796;28;105080;-54
2021/01/17 11:19:02;;;;;;;7.25;5.05;;;;;;;;;;4999251;28;105618;-51
2021/01/17 11:21:28;;;;;;;7.78;5.38;;;;;;;;;;4994499;28;105317;-54
2021/01/17 11:23:54;;;;;;;8.63;5.70;;;;;;;;;;4966886;28;106709;-50
2021/01/17 11:26:21;;;;;;;8.13;5.43;;;;;;;;;;4995493;28;105043;-53
2021/01/17 11:28:53;;;;;;;8.10;5.50;;;;;;;;;;4995729;28;105113;-52
2021/01/17 11:31:20;;;;;;;8.35;5.60;;;;;;;;;;4995484;28;106416;-49
2021/01/17 11:33:47;;;;;;;7.60;5.18;;;;;;;;;;4994226;28;105778;-53
2021/01/17 11:36:24;;;;;;;9.00;5.00;;;;;;;;;;4994711;28;105047;-54
2021/01/17 11:38:57;;;;;;;9.63;6.07;;;;;;;;;;4973237;28;107355;-50
2021/01/17 11:41:33;;;;;;;8.15;4.97;;;;;;;;;;4997437;28;105842;-52
2021/01/17 11:44:11;;;;;;;9.00;5.93;;;;;;;;;;4994797;28;105734;-50
2021/01/17 11:46:37;;;;;;;8.60;5.57;;;;;;;;;;4988137;28;105791;-50
2021/01/17 11:49:03;;;;;;;8.15;5.63;;;;;;;;;;4982560;28;105050;-49
2021/01/17 11:51:28;;;;;;;8.25;5.32;;;;;;;;;;4995369;28;106199;-55
2021/01/17 11:53:54;;;;;;;7.47;5.30;;;;;;;;;;4996467;28;105009;-56
2021/01/17 11:56:19;;;;;;;8.75;5.63;;;;;;;;;;4993597;28;105585;-52
2021/01/17 11:58:45;;;;;;;7.72;5.40;;;;;;;;;;4980413;28;107105;-56
2021/01/17 12:01:10;;;;;;;7.97;5.47;;;;;;;;;;4991492;28;105111;-53
2021/01/17 12:03:43;;;;;;;8.25;5.60;;;;;;;;;;4997808;28;105024;-55
2021/01/17 12:06:09;;;;;;;8.98;6.10;;;;;;;;;;4993983;28;105088;-53
2021/01/17 12:08:56;;;;;;;9.77;6.65;;;;;;;;;;4994996;28;105040;-54
2021/01/17 12:11:45;;;;;;;9.40;6.18;;;;;;;;;;4994468;28;105766;-54
2021/01/17 12:14:14;;;;;;;8.27;5.40;;;;;;;;;;4995272;28;105275;-52
2021/01/17 12:16:40;;;;;;;8.30;5.70;;;;;;;;;;4993834;28;105218;-53
2021/01/17 12:19:06;;;;;;;7.90;5.57;;;;;;;;;;4996148;28;104961;-52
2021/01/17 12:21:32;;;;;;;8.98;5.97;;;;;;;;;;4978495;28;106767;-51
2021/01/17 12:23:58;;;;;;;8.48;5.68;;;;;;;;;;4996153;28;105478;-50
2021/01/17 12:26:23;;;;;;;9.00;5.88;;;;;;;;;;4994750;28;105495;-54
2021/01/17 12:28:49;;;;;;;8.25;5.63;;;;;;;;;;4992960;28;105140;-54
2021/01/17 12:31:15;;;;;;;7.65;5.32;;;;;;;;;;4994970;28;105568;-54
2021/01/17 12:33:40;;;;;;;7.70;5.10;;;;;;;;;;4995028;28;105864;-55
2021/01/17 12:36:10;;;;;;;11.30;8.13;;;;;;;;;;4982585;28;105103;-56
2021/01/17 12:38:36;;;;;;;9.98;7.53;;;;;;;;;;4994023;28;105313;-56
2021/01/17 12:41:01;;;;;;;10.82;8.00;;;;;;;;;;4995695;28;105300;-55
2021/01/17 12:43:27;;;;;;;11.77;8.05;;;;;;;;;;4993026;28;105291;-56
2021/01/17 12:45:52;;;;;;;10.13;7.57;;;;;;;;;;4998116;28;105714;-52
2021/01/17 12:48:18;;;;;;;11.02;7.88;;;;;;;;;;4993768;28;105094;-53
2021/01/17 12:50:43;;;;;;;10.88;8.32;;;;;;;;;;4996561;28;105690;-54
2021/01/17 12:53:09;;;;;;;11.40;8.25;;;;;;;;;;4996710;28;105431;-56
2021/01/17 12:55:36;;;;;;;9.85;7.53;;;;;;;;;;4995519;28;105657;-55
2021/01/17 12:58:06;;;;;;;10.45;7.45;;;;;;;;;;4949209;28;105484;-54
2021/01/17 13:00:31;;;;;;;11.57;8.10;;;;;;;;;;4994153;28;105558;-55
2021/01/17 13:02:57;;;;;;;9.38;7.90;;;;;;;;;;4996092;28;105048;-54
2021/01/17 13:05:22;;;;;;;10.85;7.95;;;;;;;;;;4994251;28;105507;-54
2021/01/17 13:07:48;;;;;;;9.15;7.35;;;;;;;;;;5002032;28;110300;-55
2021/01/17 13:10:13;;;;;;;9.25;7.30;;;;;;;;;;5000475;28;108426;-52
2021/01/17 13:12:39;;;;;;;10.45;7.97;;;;;;;;;;4997590;28;104989;-55
2021/01/17 13:15:05;;;;;;;9.30;7.40;;;;;;;;;;4998605;28;105115;-55
2021/01/17 13:17:31;;;;;;;9.40;7.75;;;;;;;;;;4997366;28;105404;-52
2021/01/17 13:19:57;;;;;;;9.55;7.38;;;;;;;;;;4997543;28;104961;-54
2021/01/17 13:22:27;;;;;;;10.20;7.63;;;;;;;;;;4995587;28;105554;-54
2021/01/17 13:24:53;;;;;;;10.90;8.25;;;;;;;;;;4997313;28;105114;-54
2021/01/17 13:27:19;;;;;;;9.63;7.35;;;;;;;;;;4997319;28;105659;-53
2021/01/17 13:29:44;;;;;;;9.88;7.00;;;;;;;;;;5002749;28;105103;-55
2021/01/17 13:32:10;;;;;;;10.23;7.30;;;;;;;;;;4998087;28;105048;-55
2021/01/17 13:34:35;;;;;;;9.90;7.32;;;;;;;;;;4998778;28;105621;-53
2021/01/17 13:37:00;;;;;;;9.38;6.82;;;;;;;;;;4998478;28;105645;-55
2021/01/17 13:39:26;;;;;;;10.40;6.50;;;;;;;;;;4998952;28;105275;-55
2021/01/17 13:41:51;;;;;;;9.45;6.55;;;;;;;;;;4992849;28;104953;-54
2021/01/17 13:44:17;;;;;;;8.05;6.03;;;;;;;;;;4997009;28;105126;-54
2021/01/17 13:46:47;;;;;;;7.38;5.65;;;;;;;;;;4997949;28;105665;-55
2021/01/17 13:49:13;;;;;;;8.38;5.55;;;;;;;;;;4996361;28;105532;-52
2021/01/17 13:51:38;;;;;;;7.28;5.13;;;;;;;;;;4985901;28;105007;-55
2021/01/17 13:54:04;;;;;;;7.88;5.93;;;;;;;;;;4998368;28;104977;-54
2021/01/17 13:56:29;;;;;;;8.85;6.30;;;;;;;;;;5000389;28;105665;-52
2021/01/17 13:58:55;;;;;;;7.55;5.35;;;;;;;;;;4998337;28;109974;-53
2021/01/17 14:01:20;;;;;;;9.32;7.35;;;;;;;;;;4997492;28;105374;-51
2021/01/17 14:03:46;;;;;;;10.48;7.85;;;;;;;;;;4993495;28;105624;-51
2021/01/17 14:06:11;;;;;;;9.45;7.32;;;;;;;;;;4998635;28;106665;-55
2021/01/17 14:08:37;;;;;;;9.05;7.10;;;;;;;;;;4994875;28;106331;-52
2021/01/17 14:11:03;;;;;;;7.47;5.75;;;;;;;;;;4995942;28;105231;-52
2021/01/17 14:13:30;;;;;;;7.25;5.30;;;;;;;;;;5000587;28;105115;-55
2021/01/17 14:15:55;;;;;;;8.23;5.70;;;;;;;;;;4998362;28;105746;-55
2021/01/17 14:18:20;;;;;;;8.55;5.80;;;;;;;;;;4994670;28;112885;-55
2021/01/17 14:20:46;;;;;;;8.95;5.85;;;;;;;;;;4997040;28;105011;-52
2021/01/17 14:23:11;;;;;;;8.23;5.60;;;;;;;;;;4991352;28;119605;-51
2021/01/17 14:25:37;;;;;;;8.07;5.40;;;;;;;;;;4996782;28;105764;-55
2021/01/17 14:28:02;;;;;;;8.50;5.50;;;;;;;;;;4997458;28;105212;-54
2021/01/17 14:30:28;;;;;;;8.35;5.50;;;;;;;;;;4995669;28;105167;-56
2021/01/17 14:32:54;;;;;;;10.00;5.80;;;;;;;;;;5000613;28;105044;-56